sensor_id;sensor_type;location;lat;lon;timestamp;temperature;humidity
44229;DHT22;29904;51.058;5.378;2023-08-08T00:01:37;12.90;99.90
44229;DHT22;29904;51.058;5.378;2023-08-08T00:04:09;12.90;99.90
44229;DHT22;29904;51.058;5.378;2023-08-08T00:06:35;12.90;99.90
44229;DHT22;29904;51.058;5.378;2023-08-08T00:09:01;12.90;99.90
44229;DHT22;29904;51.058;5.378;2023-08-08T00:11:29;12.90;99.90
44229;DHT22;29904;51.058;5.378;2023-08-08T00:13:56;12.80;99.90
44229;DHT22;29904;51.058;5.378;2023-08-08T00:16:22;12.80;99.90
44229;DHT22;29904;51.058;5.378;2023-08-08T00:18:48;12.80;99.90
44229;DHT22;29904;51.058;5.378;2023-08-08T00:21:16;12.80;99.90
44229;DHT22;29904;51.058;5.378;2023-08-08T00:23:42;12.80;99.90
44229;DHT22;29904;51.058;5.378;2023-08-08T00:26:09;12.70;99.90
44229;DHT22;29904;51.058;5.378;2023-08-08T00:28:37;12.70;99.90
44229;DHT22;29904;51.058;5.378;2023-08-08T00:31:03;12.70;99.90
44229;DHT22;29904;51.058;5.378;2023-08-08T00:33:29;12.70;99.90
44229;DHT22;29904;51.058;5.378;2023-08-08T00:35:56;12.70;99.90
44229;DHT22;29904;51.058;5.378;2023-08-08T00:38:22;12.70;99.90
44229;DHT22;29904;51.058;5.378;2023-08-08T00:40:47;12.60;99.90
44229;DHT22;29904;51.058;5.378;2023-08-08T00:43:13;12.60;99.90
44229;DHT22;29904;51.058;5.378;2023-08-08T00:45:42;12.60;99.90
44229;DHT22;29904;51.058;5.378;2023-08-08T00:48:08;12.50;99.90
44229;DHT22;29904;51.058;5.378;2023-08-08T00:50:36;12.50;99.90
44229;DHT22;29904;51.058;5.378;2023-08-08T00:53:04;12.50;99.90
44229;DHT22;29904;51.058;5.378;2023-08-08T00:55:30;12.50;99.90
44229;DHT22;29904;51.058;5.378;2023-08-08T00:57:58;12.50;99.90
44229;DHT22;29904;51.058;5.378;2023-08-08T01:00:24;12.50;99.90
44229;DHT22;29904;51.058;5.378;2023-08-08T01:02:50;12.50;99.90
44229;DHT22;29904;51.058;5.378;2023-08-08T01:05:18;12.50;99.90
44229;DHT22;29904;51.058;5.378;2023-08-08T01:08:20;12.40;99.90
44229;DHT22;29904;51.058;5.378;2023-08-08T01:10:48;12.50;99.90
44229;DHT22;29904;51.058;5.378;2023-08-08T01:13:19;12.50;99.90
44229;DHT22;29904;51.058;5.378;2023-08-08T01:15:46;12.50;99.90
44229;DHT22;29904;51.058;5.378;2023-08-08T01:18:14;12.50;99.90
44229;DHT22;29904;51.058;5.378;2023-08-08T01:20:41;12.40;99.90
44229;DHT22;29904;51.058;5.378;2023-08-08T01:25:38;12.50;99.90
44229;DHT22;29904;51.058;5.378;2023-08-08T01:28:06;12.50;99.90
44229;DHT22;29904;51.058;5.378;2023-08-08T01:30:32;12.50;99.90
44229;DHT22;29904;51.058;5.378;2023-08-08T01:33:00;12.50;99.90
44229;DHT22;29904;51.058;5.378;2023-08-08T01:35:32;12.50;99.90
44229;DHT22;29904;51.058;5.378;2023-08-08T01:38:14;12.50;99.90
44229;DHT22;29904;51.058;5.378;2023-08-08T01:40:43;12.50;99.90
44229;DHT22;29904;51.058;5.378;2023-08-08T01:43:09;12.50;99.90
44229;DHT22;29904;51.058;5.378;2023-08-08T01:45:38;12.50;99.90
44229;DHT22;29904;51.058;5.378;2023-08-08T01:48:12;12.50;99.90
44229;DHT22;29904;51.058;5.378;2023-08-08T01:50:40;12.50;99.90
44229;DHT22;29904;51.058;5.378;2023-08-08T01:53:06;12.50;99.90
44229;DHT22;29904;51.058;5.378;2023-08-08T01:55:32;12.50;99.90
44229;DHT22;29904;51.058;5.378;2023-08-08T01:57:57;12.50;99.90
44229;DHT22;29904;51.058;5.378;2023-08-08T02:00:23;12.50;99.90
44229;DHT22;29904;51.058;5.378;2023-08-08T02:02:49;12.50;99.90
44229;DHT22;29904;51.058;5.378;2023-08-08T02:05:17;12.50;99.90
44229;DHT22;29904;51.058;5.378;2023-08-08T02:07:42;12.50;99.90
44229;DHT22;29904;51.058;5.378;2023-08-08T02:10:08;12.50;99.90
44229;DHT22;29904;51.058;5.378;2023-08-08T02:12:36;12.50;99.90
44229;DHT22;29904;51.058;5.378;2023-08-08T02:15:01;12.50;99.90
44229;DHT22;29904;51.058;5.378;2023-08-08T02:17:28;12.50;99.90
44229;DHT22;29904;51.058;5.378;2023-08-08T02:19:54;12.60;99.90
44229;DHT22;29904;51.058;5.378;2023-08-08T02:22:20;12.60;99.90
44229;DHT22;29904;51.058;5.378;2023-08-08T02:24:46;12.60;99.90
44229;DHT22;29904;51.058;5.378;2023-08-08T02:27:12;12.60;99.90
44229;DHT22;29904;51.058;5.378;2023-08-08T02:29:38;12.60;99.90
44229;DHT22;29904;51.058;5.378;2023-08-08T02:32:04;12.50;99.90
44229;DHT22;29904;51.058;5.378;2023-08-08T02:34:30;12.50;99.90
44229;DHT22;29904;51.058;5.378;2023-08-08T02:36:55;12.50;99.90
44229;DHT22;29904;51.058;5.378;2023-08-08T02:39:23;12.40;99.90
44229;DHT22;29904;51.058;5.378;2023-08-08T02:41:49;12.40;99.90
44229;DHT22;29904;51.058;5.378;2023-08-08T02:44:15;12.40;99.90
44229;DHT22;29904;51.058;5.378;2023-08-08T02:46:41;12.40;99.90
44229;DHT22;29904;51.058;5.378;2023-08-08T02:49:06;12.30;99.90
44229;DHT22;29904;51.058;5.378;2023-08-08T02:51:32;12.30;99.90
44229;DHT22;29904;51.058;5.378;2023-08-08T02:53:58;12.30;99.90
44229;DHT22;29904;51.058;5.378;2023-08-08T02:56:24;12.30;99.90
44229;DHT22;29904;51.058;5.378;2023-08-08T02:58:49;12.30;99.90
44229;DHT22;29904;51.058;5.378;2023-08-08T03:01:17;12.30;99.90
44229;DHT22;29904;51.058;5.378;2023-08-08T03:03:43;12.30;99.90
44229;DHT22;29904;51.058;5.378;2023-08-08T03:06:09;12.20;99.90
44229;DHT22;29904;51.058;5.378;2023-08-08T03:08:35;12.20;99.90
44229;DHT22;29904;51.058;5.378;2023-08-08T03:11:00;12.20;99.90
44229;DHT22;29904;51.058;5.378;2023-08-08T03:13:26;12.20;99.90
44229;DHT22;29904;51.058;5.378;2023-08-08T03:15:52;12.20;99.90
44229;DHT22;29904;51.058;5.378;2023-08-08T03:18:18;12.20;99.90
44229;DHT22;29904;51.058;5.378;2023-08-08T03:20:43;12.20;99.90
44229;DHT22;29904;51.058;5.378;2023-08-08T03:23:11;12.20;99.90
44229;DHT22;29904;51.058;5.378;2023-08-08T03:25:37;12.30;99.90
44229;DHT22;29904;51.058;5.378;2023-08-08T03:28:03;12.20;99.90
44229;DHT22;29904;51.058;5.378;2023-08-08T03:30:29;12.20;99.90
44229;DHT22;29904;51.058;5.378;2023-08-08T03:32:54;12.20;99.90
44229;DHT22;29904;51.058;5.378;2023-08-08T03:35:20;12.20;99.90
44229;DHT22;29904;51.058;5.378;2023-08-08T03:37:48;12.20;99.90
44229;DHT22;29904;51.058;5.378;2023-08-08T03:40:13;12.20;99.90
44229;DHT22;29904;51.058;5.378;2023-08-08T03:42:40;12.20;99.90
44229;DHT22;29904;51.058;5.378;2023-08-08T03:45:06;12.20;99.90
44229;DHT22;29904;51.058;5.378;2023-08-08T03:47:32;12.20;99.90
44229;DHT22;29904;51.058;5.378;2023-08-08T03:49:58;12.20;99.90
44229;DHT22;29904;51.058;5.378;2023-08-08T03:52:24;12.20;99.90
44229;DHT22;29904;51.058;5.378;2023-08-08T03:54:51;12.20;99.90
44229;DHT22;29904;51.058;5.378;2023-08-08T03:57:18;12.20;99.90
44229;DHT22;29904;51.058;5.378;2023-08-08T03:59:46;12.20;99.90
44229;DHT22;29904;51.058;5.378;2023-08-08T04:02:12;12.20;99.90
44229;DHT22;29904;51.058;5.378;2023-08-08T04:04:38;12.20;99.90
44229;DHT22;29904;51.058;5.378;2023-08-08T04:07:04;12.20;99.90
44229;DHT22;29904;51.058;5.378;2023-08-08T04:09:30;12.20;99.90
44229;DHT22;29904;51.058;5.378;2023-08-08T04:11:56;12.20;99.90
44229;DHT22;29904;51.058;5.378;2023-08-08T04:14:22;12.20;99.90
44229;DHT22;29904;51.058;5.378;2023-08-08T04:16:48;12.20;99.90
44229;DHT22;29904;51.058;5.378;2023-08-08T04:19:13;12.20;99.90
44229;DHT22;29904;51.058;5.378;2023-08-08T04:21:39;12.20;99.90
44229;DHT22;29904;51.058;5.378;2023-08-08T04:24:05;12.20;99.90
44229;DHT22;29904;51.058;5.378;2023-08-08T04:26:34;12.20;99.90
44229;DHT22;29904;51.058;5.378;2023-08-08T04:29:02;12.20;99.90
44229;DHT22;29904;51.058;5.378;2023-08-08T04:31:28;12.20;99.90
44229;DHT22;29904;51.058;5.378;2023-08-08T04:33:56;12.20;99.90
44229;DHT22;29904;51.058;5.378;2023-08-08T04:36:24;12.20;99.90
44229;DHT22;29904;51.058;5.378;2023-08-08T04:38:49;12.20;99.90
44229;DHT22;29904;51.058;5.378;2023-08-08T04:41:17;12.30;99.90
44229;DHT22;29904;51.058;5.378;2023-08-08T04:43:43;12.30;99.90
44229;DHT22;29904;51.058;5.378;2023-08-08T04:46:08;12.30;99.90
44229;DHT22;29904;51.058;5.378;2023-08-08T04:48:35;12.30;99.90
44229;DHT22;29904;51.058;5.378;2023-08-08T04:51:04;12.40;99.90
44229;DHT22;29904;51.058;5.378;2023-08-08T04:53:30;12.40;99.90
44229;DHT22;29904;51.058;5.378;2023-08-08T04:55:56;12.40;99.90
44229;DHT22;29904;51.058;5.378;2023-08-08T04:58:21;12.50;99.90
44229;DHT22;29904;51.058;5.378;2023-08-08T05:00:47;12.60;99.90
44229;DHT22;29904;51.058;5.378;2023-08-08T05:03:13;12.70;99.90
44229;DHT22;29904;51.058;5.378;2023-08-08T05:05:38;12.80;99.90
44229;DHT22;29904;51.058;5.378;2023-08-08T05:08:04;12.90;99.90
44229;DHT22;29904;51.058;5.378;2023-08-08T05:10:30;12.90;99.90
44229;DHT22;29904;51.058;5.378;2023-08-08T05:12:57;12.90;99.90
44229;DHT22;29904;51.058;5.378;2023-08-08T05:15:23;13.00;99.90
44229;DHT22;29904;51.058;5.378;2023-08-08T05:17:48;13.00;99.90
44229;DHT22;29904;51.058;5.378;2023-08-08T05:20:14;13.00;99.90
44229;DHT22;29904;51.058;5.378;2023-08-08T05:22:40;13.00;99.90
44229;DHT22;29904;51.058;5.378;2023-08-08T05:25:06;13.10;99.90
44229;DHT22;29904;51.058;5.378;2023-08-08T05:27:32;13.30;99.90
44229;DHT22;29904;51.058;5.378;2023-08-08T05:29:58;13.30;99.90
44229;DHT22;29904;51.058;5.378;2023-08-08T05:32:23;13.40;99.90
44229;DHT22;29904;51.058;5.378;2023-08-08T05:34:50;13.50;99.90
44229;DHT22;29904;51.058;5.378;2023-08-08T05:37:16;13.60;99.90
44229;DHT22;29904;51.058;5.378;2023-08-08T05:39:42;13.60;99.90
44229;DHT22;29904;51.058;5.378;2023-08-08T05:42:08;13.70;99.90
44229;DHT22;29904;51.058;5.378;2023-08-08T05:44:33;13.80;99.90
44229;DHT22;29904;51.058;5.378;2023-08-08T05:47:01;13.90;99.90
44229;DHT22;29904;51.058;5.378;2023-08-08T05:49:27;13.90;99.90
44229;DHT22;29904;51.058;5.378;2023-08-08T05:51:53;14.00;99.90
44229;DHT22;29904;51.058;5.378;2023-08-08T05:54:18;14.10;99.90
44229;DHT22;29904;51.058;5.378;2023-08-08T05:56:44;14.10;99.90
44229;DHT22;29904;51.058;5.378;2023-08-08T05:59:10;14.20;99.90
44229;DHT22;29904;51.058;5.378;2023-08-08T06:01:35;14.30;99.90
44229;DHT22;29904;51.058;5.378;2023-08-08T06:04:01;14.30;99.90
44229;DHT22;29904;51.058;5.378;2023-08-08T06:06:27;14.30;99.90
44229;DHT22;29904;51.058;5.378;2023-08-08T06:08:54;14.50;99.90
44229;DHT22;29904;51.058;5.378;2023-08-08T06:11:20;14.70;99.90
44229;DHT22;29904;51.058;5.378;2023-08-08T06:13:47;14.80;99.90
44229;DHT22;29904;51.058;5.378;2023-08-08T06:16:13;14.90;99.90
44229;DHT22;29904;51.058;5.378;2023-08-08T06:18:40;15.00;99.90
44229;DHT22;29904;51.058;5.378;2023-08-08T06:21:06;15.00;99.90
44229;DHT22;29904;51.058;5.378;2023-08-08T06:23:34;15.10;99.90
44229;DHT22;29904;51.058;5.378;2023-08-08T06:26:01;15.10;99.90
44229;DHT22;29904;51.058;5.378;2023-08-08T06:28:27;15.10;99.90
44229;DHT22;29904;51.058;5.378;2023-08-08T06:30:56;15.20;99.90
44229;DHT22;29904;51.058;5.378;2023-08-08T06:33:22;15.30;99.90
44229;DHT22;29904;51.058;5.378;2023-08-08T06:35:47;15.50;99.90
44229;DHT22;29904;51.058;5.378;2023-08-08T06:38:15;15.60;99.90
44229;DHT22;29904;51.058;5.378;2023-08-08T06:40:41;15.70;99.90
44229;DHT22;29904;51.058;5.378;2023-08-08T06:43:07;15.80;99.90
44229;DHT22;29904;51.058;5.378;2023-08-08T06:45:32;15.90;99.90
44229;DHT22;29904;51.058;5.378;2023-08-08T06:47:58;16.10;99.90
44229;DHT22;29904;51.058;5.378;2023-08-08T06:50:24;16.20;99.90
44229;DHT22;29904;51.058;5.378;2023-08-08T06:52:50;16.30;99.90
44229;DHT22;29904;51.058;5.378;2023-08-08T06:55:16;16.40;99.90
44229;DHT22;29904;51.058;5.378;2023-08-08T06:57:42;16.40;99.90
44229;DHT22;29904;51.058;5.378;2023-08-08T07:00:08;16.40;99.90
44229;DHT22;29904;51.058;5.378;2023-08-08T07:02:36;16.50;99.90
44229;DHT22;29904;51.058;5.378;2023-08-08T07:05:02;16.60;99.90
44229;DHT22;29904;51.058;5.378;2023-08-08T07:07:29;16.70;99.90
44229;DHT22;29904;51.058;5.378;2023-08-08T07:09:58;17.00;99.90
44229;DHT22;29904;51.058;5.378;2023-08-08T07:12:24;17.20;99.90
44229;DHT22;29904;51.058;5.378;2023-08-08T07:14:49;17.20;99.90
44229;DHT22;29904;51.058;5.378;2023-08-08T07:17:17;17.10;99.90
44229;DHT22;29904;51.058;5.378;2023-08-08T07:19:46;17.00;99.90
44229;DHT22;29904;51.058;5.378;2023-08-08T07:22:12;16.90;99.90
44229;DHT22;29904;51.058;5.378;2023-08-08T07:24:37;16.90;99.90
44229;DHT22;29904;51.058;5.378;2023-08-08T07:27:04;16.90;99.90
44229;DHT22;29904;51.058;5.378;2023-08-08T07:29:30;17.00;99.90
44229;DHT22;29904;51.058;5.378;2023-08-08T07:31:58;17.10;99.90
44229;DHT22;29904;51.058;5.378;2023-08-08T07:34:23;17.20;99.90
44229;DHT22;29904;51.058;5.378;2023-08-08T07:36:52;17.20;99.90
44229;DHT22;29904;51.058;5.378;2023-08-08T07:39:18;17.20;99.90
44229;DHT22;29904;51.058;5.378;2023-08-08T07:41:44;17.20;99.90
44229;DHT22;29904;51.058;5.378;2023-08-08T07:44:09;17.30;99.90
44229;DHT22;29904;51.058;5.378;2023-08-08T07:46:35;17.30;99.90
44229;DHT22;29904;51.058;5.378;2023-08-08T07:49:01;17.40;99.90
44229;DHT22;29904;51.058;5.378;2023-08-08T07:51:31;17.40;99.90
44229;DHT22;29904;51.058;5.378;2023-08-08T07:53:58;17.40;99.90
44229;DHT22;29904;51.058;5.378;2023-08-08T07:56:24;17.40;99.90
44229;DHT22;29904;51.058;5.378;2023-08-08T07:58:50;17.50;99.90
44229;DHT22;29904;51.058;5.378;2023-08-08T08:01:15;17.60;99.90
44229;DHT22;29904;51.058;5.378;2023-08-08T08:03:42;17.80;99.90
44229;DHT22;29904;51.058;5.378;2023-08-08T08:06:08;17.80;99.90
44229;DHT22;29904;51.058;5.378;2023-08-08T08:08:35;17.90;99.90
44229;DHT22;29904;51.058;5.378;2023-08-08T08:11:05;18.00;99.90
44229;DHT22;29904;51.058;5.378;2023-08-08T08:13:30;18.10;99.90
44229;DHT22;29904;51.058;5.378;2023-08-08T08:15:56;18.20;99.90
44229;DHT22;29904;51.058;5.378;2023-08-08T08:18:22;18.30;99.90
44229;DHT22;29904;51.058;5.378;2023-08-08T08:20:48;18.50;99.90
44229;DHT22;29904;51.058;5.378;2023-08-08T08:23:15;18.50;99.90
44229;DHT22;29904;51.058;5.378;2023-08-08T08:25:41;18.50;99.90
44229;DHT22;29904;51.058;5.378;2023-08-08T08:28:07;18.50;99.90
44229;DHT22;29904;51.058;5.378;2023-08-08T08:30:33;18.40;99.90
44229;DHT22;29904;51.058;5.378;2023-08-08T08:33:00;18.50;99.90
44229;DHT22;29904;51.058;5.378;2023-08-08T08:35:26;18.60;99.90
44229;DHT22;29904;51.058;5.378;2023-08-08T08:37:52;18.70;99.90
44229;DHT22;29904;51.058;5.378;2023-08-08T08:40:20;18.80;99.90
44229;DHT22;29904;51.058;5.378;2023-08-08T08:42:48;18.90;99.90
44229;DHT22;29904;51.058;5.378;2023-08-08T08:45:14;19.00;99.90
44229;DHT22;29904;51.058;5.378;2023-08-08T08:47:44;19.10;99.90
44229;DHT22;29904;51.058;5.378;2023-08-08T08:50:15;19.10;99.90
44229;DHT22;29904;51.058;5.378;2023-08-08T08:52:42;19.00;99.90
44229;DHT22;29904;51.058;5.378;2023-08-08T08:55:08;19.00;99.90
44229;DHT22;29904;51.058;5.378;2023-08-08T08:57:35;19.00;99.90
44229;DHT22;29904;51.058;5.378;2023-08-08T09:00:01;19.00;99.90
44229;DHT22;29904;51.058;5.378;2023-08-08T09:02:27;18.80;99.90
44229;DHT22;29904;51.058;5.378;2023-08-08T09:04:53;18.60;99.90
44229;DHT22;29904;51.058;5.378;2023-08-08T09:07:20;18.60;99.90
44229;DHT22;29904;51.058;5.378;2023-08-08T09:09:48;18.60;99.90
44229;DHT22;29904;51.058;5.378;2023-08-08T09:12:14;18.60;99.90
44229;DHT22;29904;51.058;5.378;2023-08-08T09:14:42;18.60;99.90
44229;DHT22;29904;51.058;5.378;2023-08-08T09:17:11;18.90;99.90
44229;DHT22;29904;51.058;5.378;2023-08-08T09:19:46;19.30;99.90
44229;DHT22;29904;51.058;5.378;2023-08-08T09:22:15;19.70;99.90
44229;DHT22;29904;51.058;5.378;2023-08-08T09:24:41;20.10;99.90
44229;DHT22;29904;51.058;5.378;2023-08-08T09:27:09;20.20;99.90
44229;DHT22;29904;51.058;5.378;2023-08-08T09:29:36;20.30;99.90
44229;DHT22;29904;51.058;5.378;2023-08-08T09:32:06;20.30;99.90
44229;DHT22;29904;51.058;5.378;2023-08-08T09:34:32;20.40;99.90
44229;DHT22;29904;51.058;5.378;2023-08-08T09:36:58;20.30;99.90
44229;DHT22;29904;51.058;5.378;2023-08-08T09:39:26;20.20;99.90
44229;DHT22;29904;51.058;5.378;2023-08-08T09:41:51;20.20;99.90
44229;DHT22;29904;51.058;5.378;2023-08-08T09:44:17;20.00;99.90
44229;DHT22;29904;51.058;5.378;2023-08-08T09:46:43;19.90;99.90
44229;DHT22;29904;51.058;5.378;2023-08-08T09:49:12;19.90;99.90
44229;DHT22;29904;51.058;5.378;2023-08-08T09:51:39;19.80;99.90
44229;DHT22;29904;51.058;5.378;2023-08-08T09:54:07;19.60;99.90
44229;DHT22;29904;51.058;5.378;2023-08-08T09:56:34;19.40;99.90
44229;DHT22;29904;51.058;5.378;2023-08-08T09:59:01;19.40;99.90
44229;DHT22;29904;51.058;5.378;2023-08-08T10:01:27;19.50;99.90
44229;DHT22;29904;51.058;5.378;2023-08-08T10:03:55;19.50;99.90
44229;DHT22;29904;51.058;5.378;2023-08-08T10:06:21;19.60;99.90
44229;DHT22;29904;51.058;5.378;2023-08-08T10:08:47;19.70;99.90
44229;DHT22;29904;51.058;5.378;2023-08-08T10:11:13;19.80;99.90
44229;DHT22;29904;51.058;5.378;2023-08-08T10:13:47;19.90;99.90
44229;DHT22;29904;51.058;5.378;2023-08-08T10:16:16;20.20;99.90
44229;DHT22;29904;51.058;5.378;2023-08-08T10:18:43;20.40;99.90
44229;DHT22;29904;51.058;5.378;2023-08-08T10:21:09;20.50;99.90
44229;DHT22;29904;51.058;5.378;2023-08-08T10:23:39;20.40;99.90
44229;DHT22;29904;51.058;5.378;2023-08-08T10:26:18;20.10;99.90
44229;DHT22;29904;51.058;5.378;2023-08-08T10:28:58;20.00;99.90
44229;DHT22;29904;51.058;5.378;2023-08-08T10:31:26;19.90;99.90
44229;DHT22;29904;51.058;5.378;2023-08-08T10:34:03;19.70;99.90
44229;DHT22;29904;51.058;5.378;2023-08-08T10:36:49;19.80;99.90
44229;DHT22;29904;51.058;5.378;2023-08-08T10:39:17;19.90;99.90
44229;DHT22;29904;51.058;5.378;2023-08-08T10:41:50;19.90;99.90
44229;DHT22;29904;51.058;5.378;2023-08-08T10:44:25;19.80;99.90
44229;DHT22;29904;51.058;5.378;2023-08-08T10:46:52;19.80;99.90
44229;DHT22;29904;51.058;5.378;2023-08-08T10:49:19;20.00;99.90
44229;DHT22;29904;51.058;5.378;2023-08-08T10:51:46;20.00;99.90
44229;DHT22;29904;51.058;5.378;2023-08-08T10:56:55;20.10;99.90
44229;DHT22;29904;51.058;5.378;2023-08-08T11:01:49;19.80;99.90
44229;DHT22;29904;51.058;5.378;2023-08-08T11:04:18;19.80;99.90
44229;DHT22;29904;51.058;5.378;2023-08-08T11:06:44;19.80;99.90
44229;DHT22;29904;51.058;5.378;2023-08-08T11:09:10;19.90;99.90
44229;DHT22;29904;51.058;5.378;2023-08-08T11:11:40;19.80;99.90
44229;DHT22;29904;51.058;5.378;2023-08-08T11:14:14;19.80;99.90
44229;DHT22;29904;51.058;5.378;2023-08-08T11:16:43;20.00;99.90
44229;DHT22;29904;51.058;5.378;2023-08-08T11:19:10;20.10;99.90
44229;DHT22;29904;51.058;5.378;2023-08-08T11:21:39;20.40;99.90
44229;DHT22;29904;51.058;5.378;2023-08-08T11:24:07;20.70;99.90
44229;DHT22;29904;51.058;5.378;2023-08-08T11:26:34;21.00;99.90
44229;DHT22;29904;51.058;5.378;2023-08-08T11:29:00;21.10;99.90
44229;DHT22;29904;51.058;5.378;2023-08-08T11:31:27;21.40;99.90
44229;DHT22;29904;51.058;5.378;2023-08-08T11:33:54;21.70;99.90
44229;DHT22;29904;51.058;5.378;2023-08-08T11:36:21;21.80;99.90
44229;DHT22;29904;51.058;5.378;2023-08-08T11:38:48;21.70;99.90
44229;DHT22;29904;51.058;5.378;2023-08-08T11:41:16;21.70;99.90
44229;DHT22;29904;51.058;5.378;2023-08-08T11:43:43;21.60;99.90
44229;DHT22;29904;51.058;5.378;2023-08-08T11:46:14;21.60;99.90
44229;DHT22;29904;51.058;5.378;2023-08-08T11:48:40;21.30;99.90
44229;DHT22;29904;51.058;5.378;2023-08-08T11:51:07;21.20;99.90
44229;DHT22;29904;51.058;5.378;2023-08-08T11:53:36;21.20;99.90
44229;DHT22;29904;51.058;5.378;2023-08-08T11:56:02;21.40;99.90
44229;DHT22;29904;51.058;5.378;2023-08-08T11:58:29;21.70;99.90
44229;DHT22;29904;51.058;5.378;2023-08-08T12:00:58;21.50;99.90
44229;DHT22;29904;51.058;5.378;2023-08-08T12:03:25;21.30;99.90
44229;DHT22;29904;51.058;5.378;2023-08-08T12:05:51;21.30;99.90
44229;DHT22;29904;51.058;5.378;2023-08-08T12:08:21;21.40;99.90
44229;DHT22;29904;51.058;5.378;2023-08-08T12:10:51;21.40;99.90
44229;DHT22;29904;51.058;5.378;2023-08-08T12:13:22;21.30;99.90
44229;DHT22;29904;51.058;5.378;2023-08-08T12:15:48;21.30;99.90
44229;DHT22;29904;51.058;5.378;2023-08-08T12:18:17;21.40;99.90
44229;DHT22;29904;51.058;5.378;2023-08-08T12:20:43;21.60;99.90
44229;DHT22;29904;51.058;5.378;2023-08-08T12:23:10;22.00;99.90
44229;DHT22;29904;51.058;5.378;2023-08-08T12:25:38;22.00;99.90
44229;DHT22;29904;51.058;5.378;2023-08-08T12:28:04;21.80;99.90
44229;DHT22;29904;51.058;5.378;2023-08-08T12:30:30;21.30;99.90
44229;DHT22;29904;51.058;5.378;2023-08-08T12:32:58;20.90;99.90
44229;DHT22;29904;51.058;5.378;2023-08-08T12:35:24;20.60;99.90
44229;DHT22;29904;51.058;5.378;2023-08-08T12:37:52;20.70;99.90
44229;DHT22;29904;51.058;5.378;2023-08-08T12:40:19;21.20;99.90
44229;DHT22;29904;51.058;5.378;2023-08-08T12:42:47;21.80;99.90
44229;DHT22;29904;51.058;5.378;2023-08-08T12:45:13;21.80;99.90
44229;DHT22;29904;51.058;5.378;2023-08-08T12:47:41;21.60;99.90
44229;DHT22;29904;51.058;5.378;2023-08-08T12:50:07;21.40;99.90
44229;DHT22;29904;51.058;5.378;2023-08-08T12:52:33;21.30;99.90
44229;DHT22;29904;51.058;5.378;2023-08-08T12:54:59;21.40;99.90
44229;DHT22;29904;51.058;5.378;2023-08-08T12:57:25;21.60;99.90
44229;DHT22;29904;51.058;5.378;2023-08-08T12:59:51;21.90;99.90
44229;DHT22;29904;51.058;5.378;2023-08-08T13:02:17;22.10;99.90
44229;DHT22;29904;51.058;5.378;2023-08-08T13:04:43;22.40;99.90
44229;DHT22;29904;51.058;5.378;2023-08-08T13:07:09;22.30;99.90
44229;DHT22;29904;51.058;5.378;2023-08-08T13:09:34;22.10;99.90
44229;DHT22;29904;51.058;5.378;2023-08-08T13:12:00;22.00;99.90
44229;DHT22;29904;51.058;5.378;2023-08-08T13:14:26;22.00;99.90
44229;DHT22;29904;51.058;5.378;2023-08-08T13:16:54;22.30;99.90
44229;DHT22;29904;51.058;5.378;2023-08-08T13:19:20;22.50;99.90
44229;DHT22;29904;51.058;5.378;2023-08-08T13:21:53;22.50;99.90
44229;DHT22;29904;51.058;5.378;2023-08-08T13:24:21;22.60;99.90
44229;DHT22;29904;51.058;5.378;2023-08-08T13:26:50;22.60;99.90
44229;DHT22;29904;51.058;5.378;2023-08-08T13:29:16;22.70;99.90
44229;DHT22;29904;51.058;5.378;2023-08-08T13:31:42;22.70;99.90
44229;DHT22;29904;51.058;5.378;2023-08-08T13:34:09;22.70;99.90
44229;DHT22;29904;51.058;5.378;2023-08-08T13:36:35;22.60;99.90
44229;DHT22;29904;51.058;5.378;2023-08-08T13:39:00;22.60;99.90
44229;DHT22;29904;51.058;5.378;2023-08-08T13:41:28;22.50;99.90
44229;DHT22;29904;51.058;5.378;2023-08-08T13:43:54;22.40;99.90
44229;DHT22;29904;51.058;5.378;2023-08-08T13:46:20;22.50;99.90
44229;DHT22;29904;51.058;5.378;2023-08-08T13:48:45;22.70;99.90
44229;DHT22;29904;51.058;5.378;2023-08-08T13:51:11;22.90;99.90
44229;DHT22;29904;51.058;5.378;2023-08-08T13:53:37;23.00;99.90
44229;DHT22;29904;51.058;5.378;2023-08-08T13:56:03;22.90;99.90
44229;DHT22;29904;51.058;5.378;2023-08-08T13:58:29;22.80;99.90
44229;DHT22;29904;51.058;5.378;2023-08-08T14:00:55;22.60;99.90
44229;DHT22;29904;51.058;5.378;2023-08-08T14:03:23;22.20;99.90
44229;DHT22;29904;51.058;5.378;2023-08-08T14:05:51;22.10;99.90
44229;DHT22;29904;51.058;5.378;2023-08-08T14:08:20;22.00;99.90
44229;DHT22;29904;51.058;5.378;2023-08-08T14:10:46;22.20;99.90
44229;DHT22;29904;51.058;5.378;2023-08-08T14:13:13;22.50;99.90
44229;DHT22;29904;51.058;5.378;2023-08-08T14:15:39;22.50;99.90
44229;DHT22;29904;51.058;5.378;2023-08-08T14:18:06;22.30;99.90
44229;DHT22;29904;51.058;5.378;2023-08-08T14:20:32;22.10;99.90
44229;DHT22;29904;51.058;5.378;2023-08-08T14:22:58;22.40;99.90
44229;DHT22;29904;51.058;5.378;2023-08-08T14:25:24;21.70;99.90
44229;DHT22;29904;51.058;5.378;2023-08-08T14:27:49;21.60;99.90
44229;DHT22;29904;51.058;5.378;2023-08-08T14:30:16;21.90;99.90
44229;DHT22;29904;51.058;5.378;2023-08-08T14:32:41;21.80;99.90
44229;DHT22;29904;51.058;5.378;2023-08-08T14:35:07;21.60;99.90
44229;DHT22;29904;51.058;5.378;2023-08-08T14:37:35;21.50;99.90
44229;DHT22;29904;51.058;5.378;2023-08-08T14:40:01;21.60;99.90
44229;DHT22;29904;51.058;5.378;2023-08-08T14:42:26;21.70;99.90
44229;DHT22;29904;51.058;5.378;2023-08-08T14:44:52;21.70;99.90
44229;DHT22;29904;51.058;5.378;2023-08-08T14:47:18;21.90;99.90
44229;DHT22;29904;51.058;5.378;2023-08-08T14:49:45;21.90;99.90
44229;DHT22;29904;51.058;5.378;2023-08-08T14:52:15;21.90;99.90
44229;DHT22;29904;51.058;5.378;2023-08-08T14:54:41;22.10;99.90
44229;DHT22;29904;51.058;5.378;2023-08-08T14:57:09;22.30;99.90
44229;DHT22;29904;51.058;5.378;2023-08-08T14:59:34;22.40;99.90
44229;DHT22;29904;51.058;5.378;2023-08-08T15:02:02;22.30;99.90
44229;DHT22;29904;51.058;5.378;2023-08-08T15:04:28;22.20;99.90
44229;DHT22;29904;51.058;5.378;2023-08-08T15:06:54;22.10;99.90
44229;DHT22;29904;51.058;5.378;2023-08-08T15:09:20;22.10;99.90
44229;DHT22;29904;51.058;5.378;2023-08-08T15:11:45;22.20;99.90
44229;DHT22;29904;51.058;5.378;2023-08-08T15:14:11;22.20;99.90
44229;DHT22;29904;51.058;5.378;2023-08-08T15:16:41;22.20;99.90
44229;DHT22;29904;51.058;5.378;2023-08-08T15:19:08;22.10;99.90
44229;DHT22;29904;51.058;5.378;2023-08-08T15:21:34;22.00;99.90
44229;DHT22;29904;51.058;5.378;2023-08-08T15:24:01;21.90;99.90
44229;DHT22;29904;51.058;5.378;2023-08-08T15:26:29;21.70;99.90
44229;DHT22;29904;51.058;5.378;2023-08-08T15:28:55;21.60;99.90
44229;DHT22;29904;51.058;5.378;2023-08-08T15:31:22;21.40;99.90
44229;DHT22;29904;51.058;5.378;2023-08-08T15:33:48;21.40;99.90
44229;DHT22;29904;51.058;5.378;2023-08-08T15:36:14;21.30;99.90